createdAt,value
2022-07-29T00:00:05.688Z,15.87
2022-07-29T00:02:53.200Z,15.86
2022-07-29T00:05:21.018Z,15.86
2022-07-29T00:07:48.554Z,15.87
2022-07-29T00:10:16.193Z,15.88
2022-07-29T00:12:44.040Z,15.88
2022-07-29T00:15:12.032Z,15.89
2022-07-29T00:17:39.764Z,15.91
2022-07-29T00:20:09.187Z,15.89
2022-07-29T00:22:38.840Z,15.90
2022-07-29T00:25:08.479Z,15.91
2022-07-29T00:27:36.797Z,15.93
2022-07-29T00:30:05.181Z,15.93
2022-07-29T00:32:32.991Z,15.93
2022-07-29T00:35:19.694Z,15.93
2022-07-29T00:37:47.326Z,15.91
2022-07-29T00:40:14.942Z,15.86
2022-07-29T00:42:43.389Z,15.81
2022-07-29T00:45:12.208Z,15.77
2022-07-29T00:47:39.918Z,15.72
2022-07-29T00:50:09.210Z,15.70
2022-07-29T00:52:38.402Z,15.70
2022-07-29T00:55:09.378Z,15.71
2022-07-29T00:57:37.555Z,15.71
2022-07-29T01:00:07.167Z,15.70
2022-07-29T01:02:34.906Z,15.71
2022-07-29T01:05:02.978Z,15.71
2022-07-29T01:07:32.967Z,15.71
2022-07-29T01:10:01.396Z,15.71
2022-07-29T01:12:32.201Z,15.71
2022-07-29T01:15:00.749Z,15.72
2022-07-29T01:17:33.060Z,15.72
2022-07-29T01:20:03.878Z,15.74
2022-07-29T01:22:38.018Z,15.73
2022-07-29T01:25:20.695Z,15.69
2022-07-29T01:28:02.241Z,15.68
2022-07-29T01:30:33.248Z,15.66
2022-07-29T01:33:06.786Z,15.66
2022-07-29T01:35:37.268Z,15.67
2022-07-29T01:38:08.101Z,15.68
2022-07-29T01:40:39.746Z,15.69
2022-07-29T01:43:11.103Z,15.71
2022-07-29T01:45:41.395Z,15.72
2022-07-29T01:48:12.977Z,15.74
2022-07-29T01:50:49.131Z,15.74
2022-07-29T01:53:22.462Z,15.71
2022-07-29T01:55:51.108Z,15.68
2022-07-29T01:58:19.923Z,15.67
2022-07-29T02:00:49.154Z,15.66
2022-07-29T02:03:18.307Z,15.66
2022-07-29T02:05:47.428Z,15.64
2022-07-29T02:08:16.207Z,15.62
2022-07-29T02:10:46.088Z,15.64
2022-07-29T02:13:14.660Z,15.68
2022-07-29T02:15:43.003Z,15.72
2022-07-29T02:18:13.708Z,15.75
2022-07-29T02:20:44.044Z,15.76
2022-07-29T02:23:12.565Z,15.77
2022-07-29T02:25:42.119Z,15.78
2022-07-29T02:28:11.198Z,15.78
2022-07-29T02:30:41.132Z,15.75
2022-07-29T02:33:09.592Z,15.69
2022-07-29T02:35:37.938Z,15.62
2022-07-29T02:38:23.846Z,15.57
2022-07-29T02:40:52.741Z,15.54
2022-07-29T02:43:21.950Z,15.51
2022-07-29T02:45:52.098Z,15.48
2022-07-29T02:48:20.824Z,15.44
2022-07-29T02:50:51.004Z,15.42
2022-07-29T02:53:19.579Z,15.41
2022-07-29T02:55:52.345Z,15.40
2022-07-29T02:58:23.027Z,15.39
2022-07-29T03:00:52.353Z,15.36
2022-07-29T03:06:58.917Z,15.30
2022-07-29T03:09:27.972Z,15.21
2022-07-29T03:11:56.661Z,15.18
2022-07-29T03:14:25.057Z,15.15
2022-07-29T03:16:53.279Z,15.14
2022-07-29T03:19:21.425Z,15.14
2022-07-29T03:21:49.730Z,15.16
2022-07-29T03:24:27.362Z,15.19
2022-07-29T03:26:56.169Z,15.22
2022-07-29T03:29:24.669Z,15.28
2022-07-29T03:31:52.279Z,15.37
2022-07-29T03:34:19.979Z,15.45
2022-07-29T03:36:51.468Z,15.57
2022-07-29T03:39:22.012Z,15.74
2022-07-29T03:41:51.339Z,15.93
2022-07-29T03:44:20.259Z,16.09
2022-07-29T03:46:49.067Z,16.30
2022-07-29T03:49:17.597Z,16.55
2022-07-29T03:51:47.068Z,16.81
2022-07-29T03:54:14.895Z,17.11
2022-07-29T03:56:46.557Z,17.43
2022-07-29T03:59:14.364Z,17.73
2022-07-29T04:01:42.786Z,18.02
2022-07-29T04:04:11.088Z,18.32
2022-07-29T04:06:40.301Z,18.57
2022-07-29T04:09:09.879Z,18.73
2022-07-29T04:12:02.712Z,18.83
2022-07-29T04:14:26.786Z,18.86
2022-07-29T04:16:54.577Z,18.89
2022-07-29T04:19:22.225Z,18.93
2022-07-29T04:21:49.932Z,19.01
2022-07-29T04:24:18.605Z,19.08
2022-07-29T04:26:47.313Z,19.14
2022-07-29T04:29:15.120Z,19.15
2022-07-29T04:31:43.669Z,19.19
2022-07-29T04:34:11.544Z,19.19
2022-07-29T04:36:39.302Z,19.20
2022-07-29T04:39:07.003Z,19.26
2022-07-29T04:41:34.868Z,19.40
2022-07-29T04:44:05.448Z,19.60
2022-07-29T04:46:33.366Z,19.89
2022-07-29T04:49:01.198Z,20.24
2022-07-29T04:51:29.039Z,20.52
2022-07-29T04:53:56.788Z,20.76
2022-07-29T04:56:24.744Z,20.94
2022-07-29T04:58:52.357Z,21.01
2022-07-29T05:01:20.371Z,21.11
2022-07-29T05:03:48.253Z,21.20
2022-07-29T05:06:16.048Z,21.19
2022-07-29T05:08:43.729Z,21.30
2022-07-29T05:11:12.981Z,21.26
2022-07-29T05:13:46.006Z,21.34
2022-07-29T05:16:15.181Z,21.67
2022-07-29T05:18:43.119Z,22.02
2022-07-29T05:21:10.893Z,22.37
2022-07-29T05:23:38.575Z,22.58
2022-07-29T05:26:06.589Z,22.79
2022-07-29T05:28:34.721Z,23.02
2022-07-29T05:31:02.888Z,23.26
2022-07-29T05:33:35.064Z,23.32
2022-07-29T05:36:05.833Z,23.29
2022-07-29T05:38:33.785Z,23.29
2022-07-29T05:41:01.671Z,23.28
2022-07-29T05:43:29.387Z,23.34
2022-07-29T05:45:57.522Z,23.57
2022-07-29T05:48:25.633Z,23.90
2022-07-29T05:50:53.304Z,24.20
2022-07-29T05:53:21.224Z,24.26
2022-07-29T05:55:49.342Z,24.22
2022-07-29T05:58:17.398Z,24.16
2022-07-29T06:00:45.562Z,24.26
2022-07-29T06:03:13.368Z,24.30
2022-07-29T06:05:41.194Z,24.39
2022-07-29T06:08:09.326Z,24.47
2022-07-29T06:10:37.118Z,24.64
2022-07-29T06:13:05.672Z,24.82
2022-07-29T06:15:33.767Z,24.94
2022-07-29T06:18:02.261Z,24.95
2022-07-29T06:20:30.857Z,24.88
2022-07-29T06:22:58.912Z,24.59
2022-07-29T06:25:26.844Z,24.26
2022-07-29T06:27:54.696Z,24.03
2022-07-29T06:30:22.556Z,23.98
2022-07-29T06:32:50.403Z,24.04
2022-07-29T06:35:41.240Z,24.05
2022-07-29T06:38:12.012Z,24.23
2022-07-29T06:41:03.619Z,24.31
2022-07-29T06:43:33.991Z,24.62
2022-07-29T06:46:02.151Z,24.76
2022-07-29T06:48:30.669Z,24.82
2022-07-29T06:50:58.613Z,24.71
2022-07-29T06:53:26.464Z,24.68
2022-07-29T06:55:54.296Z,24.81
2022-07-29T06:58:22.087Z,24.91
2022-07-29T07:00:59.340Z,25.15
2022-07-29T07:03:27.336Z,25.35
2022-07-29T07:05:55.408Z,25.68
2022-07-29T07:08:23.980Z,25.97
2022-07-29T07:10:51.759Z,26.05
2022-07-29T07:13:19.388Z,25.87
2022-07-29T07:15:48.787Z,25.75
2022-07-29T07:18:17.331Z,25.59
2022-07-29T07:20:45.232Z,25.40
2022-07-29T07:23:12.803Z,25.32
2022-07-29T07:25:40.414Z,25.23
2022-07-29T07:28:08.182Z,25.12
2022-07-29T07:30:36.007Z,25.04
2022-07-29T07:33:03.784Z,24.91
2022-07-29T07:35:31.597Z,24.77
2022-07-29T07:37:59.564Z,24.56
2022-07-29T07:40:27.365Z,24.47
2022-07-29T07:42:55.128Z,24.42
2022-07-29T07:45:22.794Z,24.24
2022-07-29T07:47:50.604Z,24.10
2022-07-29T07:50:19.285Z,24.07
2022-07-29T07:52:48.489Z,24.10
2022-07-29T07:55:16.697Z,24.18
2022-07-29T07:57:44.581Z,24.24
2022-07-29T08:00:13.831Z,24.24
2022-07-29T08:02:43.150Z,24.28
2022-07-29T08:05:12.695Z,24.32
2022-07-29T08:07:40.875Z,24.37
2022-07-29T08:10:09.150Z,24.42
2022-07-29T08:12:36.970Z,24.49
2022-07-29T08:15:07.602Z,24.60
2022-07-29T08:17:35.653Z,24.58
2022-07-29T08:20:04.327Z,24.51
2022-07-29T08:22:32.091Z,24.45
2022-07-29T08:24:59.751Z,24.50
2022-07-29T08:27:44.761Z,24.55
2022-07-29T08:30:12.683Z,24.56
2022-07-29T08:32:56.348Z,24.56
2022-07-29T08:35:24.596Z,24.54
2022-07-29T08:37:53.055Z,24.52
2022-07-29T08:40:21.432Z,24.52
2022-07-29T09:09:34.935Z,24.85
2022-07-29T09:12:04.401Z,24.82
2022-07-29T09:14:33.181Z,24.70
2022-07-29T09:17:02.426Z,24.63
2022-07-29T09:19:35.112Z,24.57
2022-07-29T09:22:06.598Z,24.52
2022-07-29T09:24:40.628Z,24.47
2022-07-29T09:27:21.501Z,24.34
2022-07-29T09:29:58.354Z,24.14
2022-07-29T09:32:27.327Z,23.91
2022-07-29T09:35:16.756Z,23.70
2022-07-29T09:37:45.866Z,23.39
2022-07-29T09:40:17.353Z,23.12
2022-07-29T09:42:46.604Z,22.92
2022-07-29T09:45:28.933Z,22.74
2022-07-29T09:48:00.675Z,22.59
2022-07-29T09:50:38.523Z,22.43
2022-07-29T09:53:09.712Z,22.30
2022-07-29T09:55:49.116Z,22.22
2022-07-29T09:58:19.220Z,22.14
2022-07-29T10:00:49.131Z,22.09
2022-07-29T10:03:18.626Z,22.06
2022-07-29T10:06:04.115Z,22.04
2022-07-29T10:08:33.085Z,22.02
2022-07-29T10:11:12.333Z,22.02
2022-07-29T10:13:42.409Z,22.02
2022-07-29T10:16:11.781Z,22.04
2022-07-29T10:18:42.400Z,22.04
2022-07-29T10:21:11.409Z,21.99
2022-07-29T10:23:51.334Z,21.90
2022-07-29T10:26:20.893Z,21.75
2022-07-29T10:28:49.488Z,21.63
2022-07-29T10:31:28.885Z,21.53
2022-07-29T10:34:07.760Z,21.47
2022-07-29T10:36:52.099Z,21.46
2022-07-29T10:39:41.816Z,21.49
2022-07-29T10:42:33.415Z,21.58
2022-07-29T10:45:04.778Z,21.68
2022-07-29T10:47:35.152Z,21.77
2022-07-29T10:50:06.558Z,21.87
2022-07-29T10:52:56.911Z,21.94
2022-07-29T10:55:41.934Z,22.01
2022-07-29T10:58:17.846Z,22.07
2022-07-29T11:00:47.931Z,22.19
2022-07-29T11:03:49.282Z,22.30
2022-07-29T11:06:26.682Z,22.44
2022-07-29T11:09:20.197Z,22.55
2022-07-29T11:11:54.780Z,22.68
2022-07-29T11:14:55.102Z,22.81
2022-07-29T11:17:25.557Z,22.95
2022-07-29T11:20:34.187Z,23.04
2022-07-29T11:23:23.841Z,23.17
2022-07-29T11:26:24.140Z,23.24
2022-07-29T11:28:58.408Z,23.22
2022-07-29T11:31:38.781Z,23.23
2022-07-29T11:34:28.044Z,23.21
2022-07-29T11:37:27.584Z,23.20
2022-07-29T11:40:26.667Z,23.24
2022-07-29T11:42:55.360Z,23.31
2022-07-29T11:45:45.593Z,23.38
2022-07-29T11:48:29.267Z,23.40
2022-07-29T11:51:12.152Z,23.40
2022-07-29T11:53:48.466Z,23.40
2022-07-29T11:56:25.621Z,23.41
2022-07-29T11:59:05.396Z,23.41
2022-07-29T12:01:37.508Z,23.40
2022-07-29T12:04:07.166Z,23.40
2022-07-29T12:06:36.136Z,23.41
2022-07-29T12:09:14.565Z,23.41
2022-07-29T12:11:55.387Z,23.37
2022-07-29T12:14:28.357Z,23.33
2022-07-29T12:16:57.651Z,23.23
2022-07-29T12:19:27.704Z,22.82
2022-07-29T12:21:59.452Z,22.06
2022-07-29T12:24:44.985Z,21.36
2022-07-29T12:27:18.776Z,20.76
2022-07-29T12:29:58.423Z,20.34
2022-07-29T12:32:34.224Z,20.09
2022-07-29T12:35:06.218Z,19.93
2022-07-29T12:37:42.535Z,19.84
2022-07-29T12:40:13.794Z,19.78
2022-07-29T12:42:42.468Z,19.75
2022-07-29T12:45:11.776Z,19.75
2022-07-29T12:47:54.204Z,19.76
2022-07-29T12:50:26.241Z,19.78
2022-07-29T12:52:55.495Z,19.84
2022-07-29T12:55:51.657Z,19.92
2022-07-29T12:58:31.410Z,20.04
2022-07-29T13:01:16.965Z,20.19
2022-07-29T13:03:57.774Z,20.30
2022-07-29T13:06:31.824Z,20.34
2022-07-29T13:09:18.783Z,20.39
2022-07-29T13:11:49.928Z,20.51
2022-07-29T13:14:34.504Z,20.64
2022-07-29T13:17:06.458Z,20.76
2022-07-29T13:19:37.982Z,20.81
2022-07-29T13:22:06.833Z,20.86
2022-07-29T13:24:45.729Z,20.88
2022-07-29T13:27:15.174Z,20.89
2022-07-29T13:29:43.657Z,20.91
2022-07-29T13:32:12.705Z,20.92
2022-07-29T13:34:41.460Z,20.91
2022-07-29T13:37:10.715Z,20.90
2022-07-29T13:39:40.184Z,20.88
2022-07-29T13:42:11.084Z,20.84
2022-07-29T13:44:40.567Z,20.82
2022-07-29T13:47:09.700Z,20.82
2022-07-29T13:49:38.385Z,20.85
2022-07-29T13:52:07.663Z,20.90
2022-07-29T13:54:42.128Z,20.97
2022-07-29T13:57:12.027Z,21.02
2022-07-29T13:59:42.305Z,21.10
2022-07-29T14:02:13.767Z,21.17
2022-07-29T14:04:44.341Z,21.24
2022-07-29T14:07:16.350Z,21.28
2022-07-29T14:09:45.099Z,21.29
2022-07-29T14:12:13.947Z,21.28
2022-07-29T14:14:43.194Z,21.27
2022-07-29T14:17:11.984Z,21.26
2022-07-29T14:19:40.666Z,21.28
2022-07-29T14:22:10.683Z,21.32
2022-07-29T14:24:40.062Z,21.37
2022-07-29T14:27:09.508Z,21.42
2022-07-29T14:29:38.943Z,21.47
2022-07-29T14:32:09.365Z,21.53
2022-07-29T14:34:38.460Z,21.55
2022-07-29T14:37:07.412Z,21.58
2022-07-29T14:39:42.469Z,21.57
2022-07-29T14:42:13.243Z,21.61
2022-07-29T14:44:41.937Z,21.66
2022-07-29T14:47:10.751Z,21.73
2022-07-29T14:49:39.236Z,21.77
2022-07-29T14:52:07.894Z,21.75
2022-07-29T14:54:36.609Z,21.72
2022-07-29T14:57:05.689Z,21.65
2022-07-29T14:59:34.411Z,21.56
2022-07-29T15:02:03.642Z,21.48
2022-07-29T15:04:32.757Z,21.40
2022-07-29T15:07:01.437Z,21.33
2022-07-29T15:09:30.467Z,21.26
2022-07-29T15:11:59.561Z,21.21
2022-07-29T15:14:28.441Z,21.19
2022-07-29T15:16:57.158Z,21.17
2022-07-29T15:19:26.327Z,21.16
2022-07-29T15:21:59.150Z,21.16
2022-07-29T15:24:28.571Z,21.15
2022-07-29T15:26:57.236Z,21.14
2022-07-29T15:29:25.892Z,21.10
2022-07-29T15:31:54.481Z,21.07
2022-07-29T15:34:23.723Z,21.02
2022-07-29T15:36:53.525Z,20.99
2022-07-29T15:39:23.119Z,20.94
2022-07-29T15:41:52.544Z,20.93
2022-07-29T15:44:21.377Z,20.93
2022-07-29T15:47:06.529Z,20.93
2022-07-29T15:49:47.886Z,20.88
2022-07-29T15:52:25.379Z,20.79
2022-07-29T15:54:56.040Z,20.63
2022-07-29T15:57:25.484Z,20.45
2022-07-29T15:59:54.201Z,20.30
2022-07-29T16:02:22.757Z,20.17
2022-07-29T16:04:51.395Z,20.06
2022-07-29T16:07:19.917Z,19.99
2022-07-29T16:09:53.081Z,19.94
2022-07-29T16:12:21.985Z,19.92
2022-07-29T16:14:51.498Z,19.92
2022-07-29T16:17:20.871Z,19.93
2022-07-29T16:19:49.834Z,19.94
2022-07-29T16:22:18.350Z,19.95
2022-07-29T16:24:46.991Z,19.98
2022-07-29T16:27:15.749Z,20.00
2022-07-29T16:29:46.175Z,20.01
2022-07-29T16:32:14.992Z,20.02
2022-07-29T16:34:51.478Z,20.03
2022-07-29T16:37:20.077Z,20.02
2022-07-29T16:39:48.702Z,20.03
2022-07-29T16:42:37.058Z,20.02
2022-07-29T16:45:08.304Z,20.04
2022-07-29T16:47:37.080Z,20.08
2022-07-29T16:50:08.509Z,20.11
2022-07-29T16:52:37.769Z,20.13
2022-07-29T16:55:08.169Z,20.16
2022-07-29T16:57:36.773Z,20.19
2022-07-29T17:00:07.698Z,20.21
2022-07-29T17:02:38.052Z,20.24
2022-07-29T17:05:09.893Z,20.25
2022-07-29T17:07:37.800Z,20.25
2022-07-29T17:10:08.105Z,20.24
2022-07-29T17:12:38.922Z,20.25
2022-07-29T17:15:10.838Z,20.24
2022-07-29T17:17:56.470Z,20.21
2022-07-29T17:20:26.396Z,20.18
2022-07-29T17:22:55.265Z,20.15
2022-07-29T17:25:25.640Z,20.13
2022-07-29T17:28:00.263Z,20.11
2022-07-29T17:30:30.112Z,20.11
2022-07-29T17:32:58.741Z,20.12
2022-07-29T17:35:46.104Z,20.13
2022-07-29T17:38:14.688Z,20.15
2022-07-29T17:40:43.263Z,20.17
2022-07-29T17:43:16.216Z,20.19
2022-07-29T17:45:49.817Z,20.22
2022-07-29T17:48:19.800Z,20.25
2022-07-29T17:50:49.048Z,20.25
2022-07-29T17:53:17.749Z,20.25
2022-07-29T17:55:49.019Z,20.24
2022-07-29T17:58:17.613Z,20.20
2022-07-29T18:00:46.286Z,20.17
2022-07-29T18:03:15.247Z,20.15
2022-07-29T18:05:44.358Z,20.11
2022-07-29T18:08:13.271Z,20.08
2022-07-29T18:10:42.041Z,20.06
2022-07-29T18:13:12.053Z,20.03
2022-07-29T18:15:41.212Z,20.00
2022-07-29T18:18:10.293Z,19.98
2022-07-29T18:20:39.796Z,19.96
2022-07-29T18:23:09.437Z,19.95
2022-07-29T18:25:38.864Z,19.94
2022-07-29T18:28:07.988Z,19.94
2022-07-29T18:30:37.304Z,19.92
2022-07-29T18:33:21.223Z,19.92
2022-07-29T18:35:52.714Z,19.91
2022-07-29T18:38:40.708Z,19.91
2022-07-29T18:41:09.354Z,19.92
2022-07-29T18:43:37.874Z,19.89
2022-07-29T18:46:06.885Z,19.87
2022-07-29T18:48:35.828Z,19.86
2022-07-29T18:51:09.231Z,19.85
2022-07-29T18:53:38.396Z,19.87
2022-07-29T18:56:07.075Z,19.88
2022-07-29T18:58:37.941Z,19.91
2022-07-29T19:01:07.280Z,19.92
2022-07-29T19:03:36.228Z,19.93
2022-07-29T19:06:12.429Z,19.93
2022-07-29T19:08:41.843Z,19.94
2022-07-29T19:11:13.464Z,19.94
2022-07-29T19:13:42.802Z,19.94
2022-07-29T19:16:17.337Z,19.94
2022-07-29T19:18:51.694Z,19.93
2022-07-29T19:21:22.714Z,19.90
2022-07-29T19:24:01.777Z,19.88
2022-07-29T19:26:41.602Z,19.84
2022-07-29T19:29:10.488Z,19.81
2022-07-29T19:31:39.756Z,19.79
2022-07-29T19:34:08.973Z,19.78
2022-07-29T19:36:38.249Z,19.76
2022-07-29T19:39:07.168Z,19.74
2022-07-29T19:41:36.115Z,19.72
2022-07-29T19:44:05.313Z,19.70
2022-07-29T19:46:34.154Z,19.67
2022-07-29T19:49:06.235Z,19.65
2022-07-29T19:51:34.996Z,19.64
2022-07-29T19:54:03.906Z,19.61
2022-07-29T19:56:32.668Z,19.61
2022-07-29T19:59:01.776Z,19.60
2022-07-29T20:01:32.123Z,19.61
2022-07-29T20:04:00.892Z,19.62
2022-07-29T20:06:29.741Z,19.62
2022-07-29T20:08:59.114Z,19.63
2022-07-29T20:11:29.545Z,19.62
2022-07-29T20:13:58.821Z,19.61
2022-07-29T20:16:28.229Z,19.60
2022-07-29T20:18:56.985Z,19.60
2022-07-29T20:21:26.167Z,19.59
2022-07-29T20:23:59.844Z,19.58
2022-07-29T20:26:28.738Z,19.56
2022-07-29T20:28:58.932Z,19.54
2022-07-29T20:31:30.256Z,19.54
2022-07-29T20:33:59.975Z,19.53
2022-07-29T20:36:29.148Z,19.53
2022-07-29T20:39:00.777Z,19.53
2022-07-29T20:41:29.608Z,19.52
2022-07-29T20:43:59.734Z,19.51
2022-07-29T20:46:28.647Z,19.50
2022-07-29T20:48:57.514Z,19.48
2022-07-29T20:51:26.292Z,19.48
2022-07-29T20:53:55.167Z,19.47
2022-07-29T20:56:24.600Z,19.47
2022-07-29T20:58:53.652Z,19.46
2022-07-29T21:01:22.364Z,19.47
2022-07-29T21:03:51.147Z,19.47
2022-07-29T21:06:20.440Z,19.47
2022-07-29T21:08:49.135Z,19.47
2022-07-29T21:11:18.191Z,19.47
2022-07-29T21:14:06.875Z,19.46
2022-07-29T21:16:35.581Z,19.46
2022-07-29T21:19:04.329Z,19.44
2022-07-29T21:21:33.194Z,19.43
2022-07-29T21:24:03.020Z,19.40
2022-07-29T21:26:31.570Z,19.38
2022-07-29T21:29:00.306Z,19.37
2022-07-29T21:31:28.793Z,19.34
2022-07-29T21:33:57.405Z,19.31
2022-07-29T21:36:47.737Z,19.25
2022-07-29T21:39:14.864Z,19.18
2022-07-29T21:41:43.505Z,19.11
2022-07-29T21:44:12.193Z,19.05
2022-07-29T21:46:40.943Z,18.96
2022-07-29T21:49:09.497Z,18.89
2022-07-29T21:51:38.039Z,18.83
2022-07-29T21:54:06.795Z,18.79
2022-07-29T21:56:37.414Z,18.76
2022-07-29T21:59:06.115Z,18.73
2022-07-29T22:01:39.342Z,18.71
2022-07-29T22:04:10.294Z,18.70
2022-07-29T22:06:38.947Z,18.69
2022-07-29T22:09:07.514Z,18.68
2022-07-29T22:11:36.241Z,18.66
2022-07-29T22:14:06.703Z,18.63
2022-07-29T22:16:35.416Z,18.62
2022-07-29T22:19:04.159Z,18.62
2022-07-29T22:21:33.023Z,18.60
2022-07-29T22:24:01.849Z,18.58
2022-07-29T22:26:30.543Z,18.57
2022-07-29T22:28:59.405Z,18.54
2022-07-29T22:31:27.948Z,18.49
2022-07-29T22:33:56.720Z,18.45
2022-07-29T22:36:26.000Z,18.39
2022-07-29T22:38:54.549Z,18.36
2022-07-29T22:41:23.114Z,18.32
2022-07-29T22:43:51.713Z,18.30
2022-07-29T22:46:20.374Z,18.26
2022-07-29T22:48:49.069Z,18.21
2022-07-29T22:51:17.999Z,18.18
2022-07-29T22:53:46.881Z,18.16
2022-07-29T22:56:15.513Z,18.15
2022-07-29T22:58:44.117Z,18.12
2022-07-29T23:01:13.589Z,18.12
2022-07-29T23:03:42.276Z,18.12
2022-07-29T23:06:20.175Z,18.12
2022-07-29T23:08:48.948Z,18.12
2022-07-29T23:11:17.645Z,18.13
2022-07-29T23:13:46.129Z,18.12
2022-07-29T23:16:14.718Z,18.09
2022-07-29T23:18:55.884Z,18.07
2022-07-29T23:21:25.521Z,18.04
2022-07-29T23:23:54.220Z,18.03
2022-07-29T23:26:22.710Z,18.01
2022-07-29T23:28:51.392Z,17.99
2022-07-29T23:31:20.004Z,17.96
2022-07-29T23:33:49.547Z,17.93
2022-07-29T23:36:20.203Z,17.88
2022-07-29T23:38:48.752Z,17.77
2022-07-29T23:41:17.552Z,17.67
2022-07-29T23:43:46.038Z,17.57
2022-07-29T23:46:14.657Z,17.47
2022-07-29T23:48:43.970Z,17.39
2022-07-29T23:51:12.596Z,17.32
2022-07-29T23:53:53.627Z,17.24
2022-07-29T23:56:23.267Z,17.17
2022-07-29T23:58:51.911Z,17.14
